Time;durP1;ratioP1;P1;durP2;ratioP2;P2;SDS_P1;SDS_P2;PMS_P1;PMS_P2;Temp;Humidity;BMP_temperature;BMP_pressure;BME280_temperature;BME280_humidity;BME280_pressure;Samples;Min_cycle;Max_cycle;Signal;HPM_P1;HPM_P2
2022/01/21 00:01:15;;;;;;;1.40;1.30;;;4.20;99.90;;;;;;5009355;28;20264;-62
2022/01/21 00:03:42;;;;;;;1.60;1.30;;;4.20;99.90;;;;;;5011458;28;20573;-62
2022/01/21 00:06:10;;;;;;;1.30;1.20;;;4.30;99.90;;;;;;5009454;28;20211;-60
2022/01/21 00:08:38;;;;;;;1.50;1.40;;;4.20;99.90;;;;;;5010589;28;20641;-61
2022/01/21 00:11:05;;;;;;;1.50;1.40;;;4.20;99.90;;;;;;5013273;28;20225;-61
2022/01/21 00:13:34;;;;;;;1.77;1.50;;;4.20;99.90;;;;;;5005027;28;20273;-62
2022/01/21 00:16:02;;;;;;;1.37;1.27;;;4.30;99.90;;;;;;5011172;28;20218;-63
2022/01/21 00:18:30;;;;;;;1.43;1.33;;;4.20;99.90;;;;;;5018051;28;20205;-61
2022/01/21 00:31:55;;;;;;;1.33;1.23;;;4.20;99.90;;;;;;5013901;28;20235;-62
2022/01/21 00:34:24;;;;;;;1.20;1.20;;;4.20;99.90;;;;;;5016826;28;20228;-63
2022/01/21 00:36:50;;;;;;;1.40;1.30;;;4.20;99.90;;;;;;5014224;28;20201;-64
2022/01/21 00:39:22;;;;;;;1.53;1.30;;;4.30;99.90;;;;;;5013575;28;20241;-62
2022/01/21 00:41:57;;;;;;;1.13;1.13;;;4.30;99.90;;;;;;5013354;28;20284;-63
2022/01/21 00:44:24;;;;;;;1.27;1.20;;;4.30;99.90;;;;;;5011069;28;20228;-63
2022/01/21 00:46:51;;;;;;;1.53;1.20;;;4.40;99.90;;;;;;5012529;28;20288;-62
2022/01/21 00:49:18;;;;;;;1.10;1.10;;;4.40;99.90;;;;;;5017115;28;20219;-63
2022/01/21 00:51:47;;;;;;;1.17;1.17;;;4.40;99.90;;;;;;5013687;28;20312;-64
2022/01/21 00:54:14;;;;;;;1.40;1.30;;;4.50;99.90;;;;;;5022008;28;20205;-62
2022/01/21 00:56:41;;;;;;;1.47;1.37;;;4.40;99.90;;;;;;5032508;28;20279;-63
2022/01/21 00:59:08;;;;;;;1.30;1.27;;;4.30;99.90;;;;;;5005350;28;20688;-63
2022/01/21 01:01:35;;;;;;;1.50;1.27;;;4.20;99.90;;;;;;4995076;28;20700;-64
2022/01/21 01:04:03;;;;;;;1.33;1.27;;;4.10;99.90;;;;;;4995095;28;20312;-63
2022/01/21 01:06:30;;;;;;;1.60;1.50;;;4.00;99.90;;;;;;5004972;28;20576;-62
2022/01/21 01:08:58;;;;;;;1.60;1.50;;;4.00;99.90;;;;;;5022791;28;20224;-63
2022/01/21 01:11:32;;;;;;;1.60;1.50;;;4.00;99.90;;;;;;5015041;28;20308;-64
2022/01/21 01:22:15;;;;;;;1.20;1.20;;;4.00;99.90;;;;;;5013987;28;20232;-62
2022/01/21 01:27:40;;;;;;;1.20;1.20;;;3.90;99.90;;;;;;5015106;28;20250;-63
2022/01/21 01:30:10;;;;;;;1.20;1.20;;;3.90;99.90;;;;;;5012060;28;20215;-62
2022/01/21 01:32:37;;;;;;;1.20;1.20;;;3.90;99.90;;;;;;5016184;28;20237;-63
2022/01/21 01:35:05;;;;;;;1.40;1.30;;;3.90;99.90;;;;;;5015313;28;20963;-61
2022/01/21 01:37:40;;;;;;;1.10;1.10;;;3.90;99.90;;;;;;5016137;28;20229;-62
2022/01/21 01:40:18;;;;;;;1.50;1.40;;;3.90;99.90;;;;;;5016212;28;20204;-61
2022/01/21 01:43:07;;;;;;;1.50;1.40;;;3.80;99.90;;;;;;5017770;28;20213;-63
2022/01/21 01:51:03;;;;;;;1.50;1.40;;;3.80;99.90;;;;;;4981955;28;20639;-62
2022/01/21 01:53:34;;;;;;;1.60;1.50;;;3.80;99.90;;;;;;5011404;28;20210;-61
2022/01/21 01:56:06;;;;;;;1.27;1.20;;;3.80;99.90;;;;;;5015339;28;20295;-63
2022/01/21 01:58:37;;;;;;;1.60;1.50;;;3.80;99.90;;;;;;5022541;28;20215;-63
2022/01/21 02:01:06;;;;;;;1.53;1.43;;;3.70;99.90;;;;;;5028272;28;20228;-63
2022/01/21 02:03:34;;;;;;;1.60;1.50;;;3.70;99.90;;;;;;5031872;28;20205;-64
2022/01/21 02:06:01;;;;;;;1.13;1.13;;;3.60;99.90;;;;;;5024166;28;20264;-62
2022/01/21 02:08:31;;;;;;;1.30;1.30;;;3.60;99.90;;;;;;5018153;28;20227;-63
2022/01/21 02:10:59;;;;;;;1.30;1.20;;;3.60;99.90;;;;;;5014419;28;20765;-63
2022/01/21 02:13:29;;;;;;;1.40;1.30;;;3.60;99.90;;;;;;5016237;28;20241;-63
2022/01/21 02:16:02;;;;;;;1.33;1.23;;;3.70;99.90;;;;;;5019640;28;20224;-61
2022/01/21 02:21:35;;;;;;;1.40;1.30;;;3.80;99.90;;;;;;5024739;28;20258;-63
2022/01/21 02:24:06;;;;;;;1.40;1.30;;;3.80;99.90;;;;;;5023113;28;20607;-63
2022/01/21 02:26:33;;;;;;;1.27;1.27;;;3.80;99.90;;;;;;5021467;28;20298;-63
2022/01/21 02:29:01;;;;;;;1.10;1.10;;;3.80;99.90;;;;;;5025308;28;20231;-62
2022/01/21 02:31:29;;;;;;;1.37;1.33;;;3.80;99.90;;;;;;5021929;28;20715;-63
2022/01/21 02:33:56;;;;;;;1.40;1.30;;;3.80;99.90;;;;;;5020218;28;20505;-62
2022/01/21 02:36:26;;;;;;;1.13;1.10;;;3.70;99.90;;;;;;5022108;28;20228;-62
2022/01/21 02:38:52;;;;;;;1.20;1.20;;;3.80;99.90;;;;;;5020430;28;20228;-61
2022/01/21 02:41:19;;;;;;;0.93;0.93;;;3.70;99.90;;;;;;5003774;28;20237;-63
2022/01/21 02:43:46;;;;;;;1.50;1.40;;;3.70;99.90;;;;;;5014182;28;20316;-63
2022/01/21 02:46:15;;;;;;;1.50;1.30;;;3.60;99.90;;;;;;5016113;28;20201;-63
2022/01/21 02:48:42;;;;;;;1.10;1.10;;;3.60;99.90;;;;;;5017251;28;20209;-62
2022/01/21 02:51:12;;;;;;;1.13;1.13;;;3.60;99.90;;;;;;5016568;28;20225;-63
2022/01/21 02:56:28;;;;;;;1.30;1.20;;;3.60;99.90;;;;;;5014323;28;20219;-62
2022/01/21 02:58:56;;;;;;;1.13;1.13;;;3.60;99.90;;;;;;5014817;28;21063;-61
2022/01/21 03:01:24;;;;;;;1.40;1.30;;;3.60;99.90;;;;;;5012851;28;20316;-61
2022/01/21 03:03:51;;;;;;;1.57;1.47;;;3.70;99.90;;;;;;5015030;28;20292;-61
2022/01/21 03:06:20;;;;;;;1.47;1.37;;;3.60;99.90;;;;;;5010391;28;20212;-64
2022/01/21 03:08:50;;;;;;;1.40;1.30;;;3.60;99.90;;;;;;5011983;28;20228;-64
2022/01/21 03:11:17;;;;;;;1.70;1.50;;;3.60;99.90;;;;;;5008279;28;20307;-62
2022/01/21 03:13:45;;;;;;;1.17;1.17;;;3.60;99.90;;;;;;5013178;28;20201;-63
2022/01/21 03:16:13;;;;;;;1.40;1.30;;;3.50;99.90;;;;;;5012479;28;20209;-62
2022/01/21 03:18:40;;;;;;;1.33;1.33;;;3.50;99.90;;;;;;5013317;28;20300;-63
2022/01/21 03:21:10;;;;;;;1.60;1.50;;;3.50;99.90;;;;;;5012647;28;20229;-62
2022/01/21 03:23:38;;;;;;;1.20;1.20;;;3.50;99.90;;;;;;5013508;28;20213;-62
2022/01/21 03:26:06;;;;;;;1.40;1.40;;;3.50;99.90;;;;;;5006161;28;20339;-63
2022/01/21 03:28:33;;;;;;;1.50;1.40;;;3.50;99.90;;;;;;5012403;28;20211;-63
2022/01/21 03:31:00;;;;;;;1.53;1.43;;;3.50;99.90;;;;;;5009358;28;20236;-62
2022/01/21 03:33:27;;;;;;;1.20;1.20;;;3.50;99.90;;;;;;5012190;28;20291;-62
2022/01/21 03:35:54;;;;;;;1.30;1.30;;;3.50;99.90;;;;;;5014290;28;20207;-61
2022/01/21 03:38:26;;;;;;;1.67;1.53;;;3.50;99.90;;;;;;5013539;28;20208;-61
2022/01/21 03:40:53;;;;;;;1.67;1.57;;;3.50;99.90;;;;;;5014293;28;20224;-62
2022/01/21 03:43:23;;;;;;;1.20;1.20;;;3.50;99.90;;;;;;5013226;28;20815;-62
2022/01/21 03:45:50;;;;;;;1.10;1.10;;;3.50;99.90;;;;;;5022435;28;20569;-62
2022/01/21 03:48:18;;;;;;;1.40;1.30;;;3.50;99.90;;;;;;5031353;28;20298;-61
2022/01/21 03:50:45;;;;;;;1.20;1.17;;;3.60;99.90;;;;;;5031782;28;20224;-63
2022/01/21 03:53:13;;;;;;;1.10;1.10;;;3.60;99.90;;;;;;5044300;28;20299;-63
2022/01/21 03:55:40;;;;;;;1.70;1.20;;;3.60;99.90;;;;;;5035097;28;20288;-62
2022/01/21 03:58:09;;;;;;;1.13;1.13;;;3.50;99.90;;;;;;5035782;28;20220;-62
2022/01/21 04:00:40;;;;;;;1.63;1.40;;;3.60;99.90;;;;;;5041264;28;20650;-62
2022/01/21 04:03:07;;;;;;;1.40;1.30;;;3.60;99.90;;;;;;5041985;28;20221;-62
2022/01/21 04:05:35;;;;;;;1.30;1.30;;;3.50;99.90;;;;;;5041551;28;20264;-62
2022/01/21 04:08:02;;;;;;;1.50;1.40;;;3.40;99.90;;;;;;5044686;28;20287;-63
2022/01/21 04:10:30;;;;;;;1.00;1.00;;;3.40;99.90;;;;;;5045068;28;20244;-62
2022/01/21 04:12:57;;;;;;;1.37;1.20;;;3.40;99.90;;;;;;5039692;28;20244;-62
2022/01/21 04:15:24;;;;;;;1.10;1.10;;;3.40;99.90;;;;;;5041392;28;20200;-62
2022/01/21 04:17:52;;;;;;;1.03;1.03;;;3.50;99.90;;;;;;5032437;28;20270;-62
2022/01/21 04:20:19;;;;;;;1.40;1.30;;;3.50;99.90;;;;;;5032058;28;20240;-62
2022/01/21 04:22:47;;;;;;;1.50;1.40;;;3.60;99.90;;;;;;5030800;28;20201;-62
2022/01/21 04:25:14;;;;;;;1.47;1.37;;;3.50;99.90;;;;;;5030372;28;20219;-63
2022/01/21 04:27:41;;;;;;;1.23;1.23;;;3.50;99.90;;;;;;5030412;28;20292;-63
2022/01/21 04:30:10;;;;;;;1.30;1.20;;;3.40;99.90;;;;;;5030697;28;20217;-62
2022/01/21 04:32:37;;;;;;;1.20;1.20;;;3.40;99.90;;;;;;5031154;28;20240;-61
2022/01/21 04:35:06;;;;;;;1.13;1.13;;;3.40;99.90;;;;;;5030603;28;20682;-62
2022/01/21 04:37:33;;;;;;;1.13;1.07;;;3.30;99.90;;;;;;5030703;28;20262;-62
2022/01/21 04:40:06;;;;;;;1.43;1.33;;;3.50;99.90;;;;;;5030973;28;20216;-61
2022/01/21 04:48:02;;;;;;;1.47;1.37;;;3.60;99.90;;;;;;5034771;28;20208;-63
2022/01/21 04:50:39;;;;;;;1.43;1.33;;;3.50;99.90;;;;;;5034357;28;20320;-62
2022/01/21 04:53:06;;;;;;;1.27;1.20;;;3.50;99.90;;;;;;5034518;28;20200;-61
2022/01/21 04:55:33;;;;;;;1.43;1.37;;;3.40;99.90;;;;;;5034195;28;20200;-62
2022/01/21 04:58:00;;;;;;;1.30;1.20;;;3.40;99.90;;;;;;5033732;28;20873;-63
2022/01/21 05:00:27;;;;;;;1.40;1.30;;;3.40;99.90;;;;;;5035536;28;20331;-62
2022/01/21 05:02:54;;;;;;;1.20;1.17;;;3.40;99.90;;;;;;5047805;28;20440;-63
2022/01/21 05:05:21;;;;;;;1.40;1.30;;;3.40;99.90;;;;;;5027031;28;20232;-64
2022/01/21 05:07:49;;;;;;;1.33;1.27;;;3.40;99.90;;;;;;5025571;28;20220;-63
2022/01/21 05:10:16;;;;;;;1.53;1.37;;;3.40;99.90;;;;;;5025668;28;20240;-61
2022/01/21 05:12:43;;;;;;;1.40;1.30;;;3.40;99.90;;;;;;5024765;28;20523;-62
2022/01/21 05:15:17;;;;;;;1.43;1.33;;;3.40;99.90;;;;;;5013745;28;20614;-62
2022/01/21 05:17:48;;;;;;;1.47;1.37;;;3.50;99.90;;;;;;5013494;28;20293;-62
2022/01/21 05:20:16;;;;;;;1.53;1.43;;;3.50;99.90;;;;;;5013497;28;20597;-62
2022/01/21 05:22:43;;;;;;;1.40;1.30;;;3.40;99.90;;;;;;5013533;28;20213;-62
2022/01/21 05:25:16;;;;;;;1.23;1.20;;;3.40;99.90;;;;;;5012985;28;20694;-62
2022/01/21 05:27:46;;;;;;;1.20;1.10;;;3.40;99.90;;;;;;5017589;28;20659;-62
2022/01/21 05:30:13;;;;;;;1.07;1.00;;;3.40;99.90;;;;;;5024979;28;20228;-63
2022/01/21 05:32:40;;;;;;;1.37;1.27;;;3.40;99.90;;;;;;5033100;28;20291;-62
2022/01/21 05:35:08;;;;;;;1.40;1.30;;;3.40;99.90;;;;;;5032225;28;20209;-62
2022/01/21 05:37:35;;;;;;;1.23;1.20;;;3.40;99.90;;;;;;5033605;28;20204;-62
2022/01/21 05:40:02;;;;;;;1.30;1.20;;;3.40;99.90;;;;;;5033817;28;20211;-61
2022/01/21 05:42:33;;;;;;;1.57;1.47;;;3.40;99.90;;;;;;5033231;28;20316;-61
2022/01/21 05:47:44;;;;;;;1.40;1.30;;;3.40;99.90;;;;;;5033454;28;20597;-61
2022/01/21 05:50:10;;;;;;;1.50;1.40;;;3.40;99.90;;;;;;5033831;28;20236;-61
2022/01/21 05:52:41;;;;;;;1.40;1.30;;;3.30;99.90;;;;;;5020748;28;20407;-62
2022/01/21 05:55:09;;;;;;;1.53;1.43;;;3.40;99.90;;;;;;5033189;28;20193;-61
2022/01/21 05:57:37;;;;;;;1.00;1.00;;;3.40;99.90;;;;;;5033353;28;20248;-60
2022/01/21 06:00:05;;;;;;;1.20;1.20;;;3.40;99.90;;;;;;5023247;28;20214;-60
2022/01/21 06:02:32;;;;;;;1.30;1.20;;;3.50;99.90;;;;;;4993531;28;20620;-60
2022/01/21 06:04:59;;;;;;;1.20;1.20;;;3.50;99.90;;;;;;4993692;28;20237;-61
2022/01/21 06:07:26;;;;;;;1.20;1.20;;;3.50;99.90;;;;;;4993345;28;20746;-61
2022/01/21 06:09:53;;;;;;;1.50;1.40;;;3.40;99.90;;;;;;4995136;28;20369;-62
2022/01/21 06:12:20;;;;;;;1.47;1.37;;;3.50;99.90;;;;;;5020716;28;20235;-62
2022/01/21 06:14:49;;;;;;;1.70;1.60;;;3.30;99.90;;;;;;5030736;28;20646;-62
2022/01/21 06:17:16;;;;;;;1.17;1.17;;;3.20;99.90;;;;;;5032386;28;20208;-61
2022/01/21 06:19:44;;;;;;;1.20;1.20;;;3.20;99.90;;;;;;5032442;28;20208;-62
2022/01/21 06:22:12;;;;;;;1.70;1.53;;;3.20;99.90;;;;;;5033467;28;20220;-60
2022/01/21 06:24:39;;;;;;;1.50;1.40;;;3.20;99.90;;;;;;5032506;28;20250;-61
2022/01/21 06:27:06;;;;;;;1.50;1.40;;;3.30;99.90;;;;;;5032391;28;20285;-61
2022/01/21 06:29:33;;;;;;;1.20;1.20;;;3.20;99.90;;;;;;5032148;28;20287;-62
2022/01/21 06:32:01;;;;;;;1.40;1.30;;;3.20;99.90;;;;;;5032500;28;20319;-62
2022/01/21 06:34:28;;;;;;;1.30;1.20;;;3.20;99.90;;;;;;5031971;28;20311;-61
2022/01/21 06:36:55;;;;;;;1.50;1.40;;;3.30;99.90;;;;;;5024707;28;20256;-63
2022/01/21 06:39:22;;;;;;;1.40;1.30;;;3.30;99.90;;;;;;5020555;28;20205;-62
2022/01/21 06:41:50;;;;;;;1.40;1.30;;;3.40;99.90;;;;;;5011766;28;20225;-61
2022/01/21 06:44:18;;;;;;;1.40;1.30;;;3.40;99.90;;;;;;5012554;28;20201;-61
2022/01/21 06:46:47;;;;;;;1.20;1.20;;;3.40;99.90;;;;;;5006355;28;20221;-61
2022/01/21 06:49:15;;;;;;;1.30;1.20;;;3.40;99.90;;;;;;4996533;28;20212;-61
2022/01/21 06:51:42;;;;;;;1.37;1.27;;;3.40;99.90;;;;;;4996527;28;20226;-62
2022/01/21 06:54:09;;;;;;;1.40;1.33;;;3.40;99.90;;;;;;4996213;28;20285;-62
2022/01/21 06:56:36;;;;;;;1.60;1.50;;;3.40;99.90;;;;;;4998583;28;20240;-60
2022/01/21 06:59:04;;;;;;;1.47;1.37;;;3.50;99.90;;;;;;5012651;28;20203;-62
2022/01/21 07:01:31;;;;;;;1.30;1.30;;;3.40;99.90;;;;;;5028064;28;20220;-62
2022/01/21 07:03:58;;;;;;;1.63;1.53;;;3.40;99.90;;;;;;5031705;28;20250;-62
2022/01/21 07:06:26;;;;;;;1.53;1.40;;;3.30;99.90;;;;;;5031030;28;20228;-61
2022/01/21 07:08:53;;;;;;;1.83;1.70;;;3.30;99.90;;;;;;5031468;28;20205;-62
2022/01/21 07:11:20;;;;;;;1.67;1.57;;;3.30;99.90;;;;;;5031894;28;20235;-60
2022/01/21 07:13:46;;;;;;;1.60;1.50;;;3.20;99.90;;;;;;5031793;28;20247;-62
2022/01/21 07:16:13;;;;;;;1.40;1.30;;;3.20;99.90;;;;;;5032456;28;20658;-61
2022/01/21 07:18:40;;;;;;;1.60;1.50;;;3.20;99.90;;;;;;5032653;28;20304;-62
2022/01/21 07:21:07;;;;;;;1.40;1.40;;;3.20;99.90;;;;;;5032916;28;20252;-60
2022/01/21 07:23:35;;;;;;;1.70;1.60;;;3.20;99.90;;;;;;5033292;28;20273;-61
2022/01/21 07:26:04;;;;;;;1.60;1.50;;;3.20;99.90;;;;;;5032696;28;20749;-60
2022/01/21 07:28:32;;;;;;;1.57;1.47;;;3.20;99.90;;;;;;5033467;28;20291;-61
2022/01/21 07:30:58;;;;;;;1.77;1.67;;;3.20;99.90;;;;;;5034816;28;20355;-60
2022/01/21 07:33:25;;;;;;;2.07;1.50;;;3.20;99.90;;;;;;5027853;28;20259;-60
2022/01/21 07:35:52;;;;;;;2.20;2.00;;;3.10;99.90;;;;;;5025728;28;20276;-60
2022/01/21 07:38:19;;;;;;;1.70;1.60;;;3.20;99.90;;;;;;5033175;28;20200;-61
2022/01/21 07:40:47;;;;;;;1.70;1.60;;;3.10;99.90;;;;;;5032652;28;20322;-61
2022/01/21 07:43:14;;;;;;;1.67;1.57;;;3.10;99.90;;;;;;5033006;28;20238;-61
2022/01/21 07:45:41;;;;;;;1.53;1.43;;;3.10;99.90;;;;;;5033028;28;20220;-61
2022/01/21 07:48:09;;;;;;;1.60;1.50;;;3.00;99.90;;;;;;5032501;28;20204;-62
2022/01/21 07:50:36;;;;;;;1.53;1.43;;;3.00;99.90;;;;;;5032765;28;20323;-62
2022/01/21 07:53:04;;;;;;;1.30;1.30;;;3.10;99.90;;;;;;5033463;28;20291;-65
2022/01/21 07:55:31;;;;;;;1.80;1.70;;;3.10;99.90;;;;;;5031995;28;20200;-62
2022/01/21 07:58:00;;;;;;;1.73;1.63;;;3.10;99.90;;;;;;5031690;28;20579;-62
2022/01/21 08:00:27;;;;;;;1.37;1.30;;;3.10;99.90;;;;;;5027467;28;20371;-61
2022/01/21 08:02:54;;;;;;;1.80;1.70;;;3.20;99.90;;;;;;5022493;28;20284;-61
2022/01/21 08:05:21;;;;;;;1.70;1.60;;;3.20;99.90;;;;;;5031058;28;20208;-62
2022/01/21 08:07:48;;;;;;;1.80;1.70;;;3.20;99.90;;;;;;5031173;28;20201;-62
2022/01/21 08:10:15;;;;;;;1.70;1.60;;;3.20;99.90;;;;;;5031253;28;20208;-62
2022/01/21 08:12:42;;;;;;;1.80;1.70;;;3.30;99.90;;;;;;5031483;28;20189;-61
2022/01/21 08:15:10;;;;;;;1.80;1.70;;;3.30;99.90;;;;;;5030666;28;20291;-61
2022/01/21 08:17:37;;;;;;;1.73;1.63;;;3.30;99.90;;;;;;5033434;28;20312;-61
2022/01/21 08:20:05;;;;;;;1.90;1.80;;;3.40;99.90;;;;;;5034875;28;20633;-61
2022/01/21 08:22:32;;;;;;;2.00;1.90;;;3.40;99.90;;;;;;5034933;28;20295;-62
2022/01/21 08:24:59;;;;;;;2.00;1.90;;;3.40;99.90;;;;;;5034841;28;20307;-62
2022/01/21 08:27:26;;;;;;;1.90;1.80;;;3.30;99.90;;;;;;5035181;28;20269;-62
2022/01/21 08:29:53;;;;;;;2.03;1.83;;;3.40;99.90;;;;;;5036866;28;20271;-61
2022/01/21 08:32:21;;;;;;;1.90;1.80;;;3.40;99.90;;;;;;5037788;28;20715;-61
2022/01/21 08:34:49;;;;;;;1.90;1.80;;;3.50;99.90;;;;;;5028084;28;20283;-62
2022/01/21 08:37:16;;;;;;;2.00;1.90;;;3.40;99.90;;;;;;5028771;28;20680;-61
2022/01/21 08:39:43;;;;;;;1.90;1.80;;;3.40;99.90;;;;;;5034560;28;20244;-62
2022/01/21 08:42:11;;;;;;;1.97;1.87;;;3.40;99.90;;;;;;5029070;28;20225;-61
2022/01/21 08:44:38;;;;;;;2.03;1.90;;;3.30;99.90;;;;;;5018042;28;20577;-62
2022/01/21 08:47:05;;;;;;;1.80;1.70;;;3.30;99.90;;;;;;5016055;28;20594;-62
2022/01/21 08:49:34;;;;;;;1.80;1.70;;;3.30;99.90;;;;;;5022850;28;20259;-62
2022/01/21 08:52:01;;;;;;;1.90;1.80;;;3.40;99.90;;;;;;4994641;28;20257;-62
2022/01/21 08:54:29;;;;;;;1.90;1.80;;;3.40;99.90;;;;;;4998673;28;20240;-62
2022/01/21 08:56:57;;;;;;;1.90;1.80;;;3.40;99.90;;;;;;5023302;28;20197;-62
2022/01/21 08:59:26;;;;;;;1.80;1.70;;;3.40;99.90;;;;;;5029280;28;20204;-62
2022/01/21 09:01:53;;;;;;;1.73;1.60;;;3.50;99.90;;;;;;5033924;28;20259;-63
2022/01/21 09:04:20;;;;;;;2.50;2.10;;;3.70;99.90;;;;;;5034259;28;20303;-61
2022/01/21 09:06:49;;;;;;;2.23;2.03;;;3.70;99.90;;;;;;5022403;28;20218;-61
2022/01/21 09:09:15;;;;;;;1.87;1.77;;;3.80;99.90;;;;;;5016769;28;20309;-61
2022/01/21 09:11:42;;;;;;;1.70;1.60;;;3.80;99.90;;;;;;5032685;28;20738;-62
2022/01/21 09:14:10;;;;;;;1.70;1.60;;;3.90;99.90;;;;;;5044442;28;20224;-62
2022/01/21 09:16:37;;;;;;;1.90;1.80;;;3.90;99.90;;;;;;5036232;28;20251;-62
2022/01/21 09:19:05;;;;;;;1.87;1.77;;;3.90;99.90;;;;;;5033870;28;20235;-62
2022/01/21 09:21:35;;;;;;;1.93;1.70;;;4.00;99.90;;;;;;5034323;28;20396;-62
2022/01/21 09:24:04;;;;;;;2.13;2.00;;;4.00;99.90;;;;;;5033629;28;20222;-63
2022/01/21 09:26:31;;;;;;;1.83;1.73;;;4.10;99.90;;;;;;5025246;28;20308;-61
2022/01/21 09:28:59;;;;;;;2.03;1.93;;;4.20;99.90;;;;;;5017598;28;20283;-61
2022/01/21 09:31:26;;;;;;;2.17;1.97;;;4.30;99.90;;;;;;5019162;28;20332;-61
2022/01/21 09:33:53;;;;;;;2.20;2.10;;;4.30;99.90;;;;;;5011566;28;20208;-61
2022/01/21 09:36:20;;;;;;;2.03;1.93;;;4.40;99.90;;;;;;5006425;28;20205;-62
2022/01/21 09:38:47;;;;;;;1.70;1.60;;;4.50;99.90;;;;;;5005855;28;20300;-61
2022/01/21 09:41:17;;;;;;;1.80;1.70;;;4.50;99.90;;;;;;5007101;28;20253;-63
2022/01/21 09:43:47;;;;;;;1.80;1.70;;;4.60;99.90;;;;;;5008077;28;20206;-61
2022/01/21 09:46:14;;;;;;;2.00;1.90;;;4.70;99.90;;;;;;5000933;28;20710;-62
2022/01/21 09:48:52;;;;;;;1.70;1.60;;;4.70;99.90;;;;;;5001677;28;20201;-62
2022/01/21 09:51:19;;;;;;;1.70;1.60;;;4.70;99.90;;;;;;4998411;28;20226;-61
2022/01/21 09:53:46;;;;;;;1.83;1.73;;;4.80;99.90;;;;;;4999377;28;20462;-62
2022/01/21 09:56:16;;;;;;;1.80;1.70;;;4.80;99.90;;;;;;5001739;28;20308;-62
2022/01/21 09:58:46;;;;;;;1.80;1.70;;;4.90;99.90;;;;;;5008194;28;20292;-61
2022/01/21 10:01:14;;;;;;;1.70;1.60;;;4.90;99.90;;;;;;5014240;28;20319;-62
2022/01/21 10:03:44;;;;;;;1.80;1.70;;;4.90;99.90;;;;;;5005442;28;20233;-64
2022/01/21 10:06:12;;;;;;;1.60;1.50;;;4.90;99.90;;;;;;5003256;28;20226;-61
2022/01/21 10:08:41;;;;;;;1.97;1.80;;;4.90;99.90;;;;;;5014870;28;20197;-62
2022/01/21 10:11:09;;;;;;;1.70;1.60;;;4.70;99.90;;;;;;5012566;28;20228;-62
2022/01/21 10:13:38;;;;;;;1.67;1.57;;;4.60;99.90;;;;;;5016268;28;20216;-63
2022/01/21 10:16:08;;;;;;;1.73;1.60;;;4.50;99.90;;;;;;5013896;28;20209;-62
2022/01/21 10:18:36;;;;;;;1.30;1.30;;;4.50;99.90;;;;;;5012857;28;20193;-62
2022/01/21 10:21:06;;;;;;;1.50;1.33;;;4.60;99.90;;;;;;5014534;28;20312;-63
2022/01/21 10:23:39;;;;;;;2.30;1.77;;;4.60;99.90;;;;;;5014588;28;20297;-61
2022/01/21 10:26:08;;;;;;;1.60;1.50;;;4.80;99.90;;;;;;5014058;28;20750;-62
2022/01/21 10:28:36;;;;;;;1.57;1.47;;;4.90;99.90;;;;;;5014440;28;20201;-62
2022/01/21 10:31:10;;;;;;;1.70;1.60;;;5.10;99.90;;;;;;5016451;28;20232;-61
2022/01/21 10:33:43;;;;;;;1.77;1.60;;;5.20;99.90;;;;;;5012665;28;20201;-61
2022/01/21 10:36:15;;;;;;;1.60;1.50;;;5.30;99.90;;;;;;5011332;28;20285;-62
2022/01/21 10:38:45;;;;;;;1.37;1.37;;;5.40;99.90;;;;;;5014601;28;20194;-62
2022/01/21 10:41:14;;;;;;;1.57;1.47;;;5.50;99.90;;;;;;5008783;28;20260;-62
2022/01/21 10:43:41;;;;;;;1.67;1.57;;;5.60;99.90;;;;;;5011812;28;20230;-61
2022/01/21 10:46:15;;;;;;;1.73;1.63;;;5.70;99.90;;;;;;5011656;28;20215;-62
2022/01/21 10:49:04;;;;;;;2.00;1.90;;;5.70;99.90;;;;;;5013689;28;20285;-62
2022/01/21 10:51:34;;;;;;;1.83;1.73;;;5.70;99.90;;;;;;5007260;28;20229;-63
2022/01/21 10:54:13;;;;;;;1.73;1.63;;;5.80;99.90;;;;;;5011979;28;20292;-62
2022/01/21 10:56:40;;;;;;;1.90;1.67;;;5.70;99.90;;;;;;5012647;28;20193;-63
2022/01/21 10:59:07;;;;;;;1.60;1.50;;;5.70;99.90;;;;;;5008449;28;20288;-61
2022/01/21 11:01:36;;;;;;;1.70;1.60;;;5.80;99.90;;;;;;5011097;28;20386;-61
2022/01/21 11:04:08;;;;;;;1.80;1.70;;;5.70;99.90;;;;;;5009094;28;20202;-61
2022/01/21 11:06:44;;;;;;;2.03;1.80;;;5.50;99.90;;;;;;5009153;28;20264;-61
2022/01/21 11:09:17;;;;;;;1.60;1.50;;;5.40;99.90;;;;;;5013445;28;20268;-61
2022/01/21 11:11:45;;;;;;;1.50;1.40;;;5.30;99.90;;;;;;5016512;28;20227;-63
2022/01/21 11:14:13;;;;;;;1.60;1.50;;;5.20;99.90;;;;;;5008427;28;20233;-62
2022/01/21 11:16:46;;;;;;;1.60;1.50;;;5.40;99.90;;;;;;5012440;28;20304;-62
2022/01/21 11:19:16;;;;;;;1.60;1.50;;;5.40;99.90;;;;;;5010830;28;20201;-62
2022/01/21 11:21:49;;;;;;;1.83;1.70;;;5.40;99.90;;;;;;5011515;28;20253;-63
2022/01/21 11:24:18;;;;;;;1.70;1.60;;;5.50;99.90;;;;;;5009733;28;20212;-62
2022/01/21 11:27:05;;;;;;;2.03;1.83;;;5.70;99.90;;;;;;5007425;28;20213;-63
2022/01/21 11:29:33;;;;;;;2.10;1.90;;;5.50;99.90;;;;;;5015857;28;20672;-62
2022/01/21 11:32:03;;;;;;;1.70;1.60;;;5.10;99.90;;;;;;5010166;28;20251;-61
2022/01/21 11:34:30;;;;;;;1.60;1.50;;;4.90;99.90;;;;;;5017812;28;20197;-62
2022/01/21 11:36:58;;;;;;;1.70;1.53;;;4.80;99.90;;;;;;5010046;28;20228;-61
2022/01/21 11:39:25;;;;;;;1.83;1.73;;;4.90;99.90;;;;;;5010785;28;20263;-61
2022/01/21 11:41:56;;;;;;;1.73;1.60;;;4.90;99.90;;;;;;5008046;28;20731;-62
2022/01/21 11:44:25;;;;;;;1.40;1.30;;;4.90;99.90;;;;;;5012143;28;20208;-62
2022/01/21 11:47:14;;;;;;;1.83;1.70;;;5.00;99.90;;;;;;5020351;28;20213;-62
2022/01/21 11:49:55;;;;;;;1.63;1.53;;;5.00;99.90;;;;;;5022935;28;20244;-61
2022/01/21 11:52:22;;;;;;;1.33;1.30;;;4.90;99.90;;;;;;5030212;28;20596;-61
2022/01/21 11:54:50;;;;;;;1.30;1.27;;;5.00;99.90;;;;;;5029389;28;20216;-60
2022/01/21 11:57:28;;;;;;;1.57;1.47;;;5.20;99.90;;;;;;5017001;28;20212;-61
2022/01/21 12:00:02;;;;;;;1.50;1.40;;;5.20;99.90;;;;;;5014275;28;20293;-62
2022/01/21 12:02:32;;;;;;;1.60;1.50;;;5.20;99.90;;;;;;5015239;28;20224;-62
2022/01/21 12:05:01;;;;;;;1.67;1.57;;;5.30;99.90;;;;;;5011714;28;20237;-62
2022/01/21 12:07:51;;;;;;;1.73;1.63;;;5.40;99.90;;;;;;5017510;28;20726;-63
2022/01/21 12:10:31;;;;;;;1.20;1.20;;;5.50;99.90;;;;;;5008433;28;20702;-62
2022/01/21 12:13:02;;;;;;;1.40;1.30;;;5.50;99.90;;;;;;5028687;28;20411;-63
2022/01/21 12:21:54;;;;;;;1.40;1.30;;;5.90;99.90;;;;;;5027641;28;20656;-61
2022/01/21 12:25:05;;;;;;;1.30;1.20;;;5.90;99.90;;;;;;5002430;28;20221;-63
2022/01/21 12:27:32;;;;;;;1.40;1.30;;;6.00;99.90;;;;;;5018907;28;20279;-62
2022/01/21 12:30:28;;;;;;;1.43;1.33;;;6.20;99.90;;;;;;5014945;28;20212;-62
2022/01/21 12:32:59;;;;;;;2.07;1.40;;;6.30;99.90;;;;;;5013596;28;20689;-62
2022/01/21 12:35:26;;;;;;;1.57;1.47;;;6.20;99.90;;;;;;5026340;28;20197;-61
2022/01/21 12:41:32;;;;;;;1.20;1.10;;;6.20;99.90;;;;;;5021520;28;20218;-63
2022/01/21 12:44:00;;;;;;;1.93;1.40;;;6.30;99.90;;;;;;5002966;28;20209;-63
2022/01/21 12:46:34;;;;;;;1.20;1.10;;;6.30;99.90;;;;;;5026265;28;20205;-63
2022/01/21 12:49:02;;;;;;;0.93;0.93;;;6.30;99.90;;;;;;5026362;28;20205;-62
2022/01/21 12:51:55;;;;;;;1.10;1.10;;;6.40;99.90;;;;;;5019923;28;20252;-62
2022/01/21 12:57:10;;;;;;;1.20;1.10;;;6.30;99.90;;;;;;5024692;28;20216;-63
2022/01/21 12:59:39;;;;;;;1.10;1.10;;;6.50;99.90;;;;;;5014907;28;20240;-61
2022/01/21 13:02:06;;;;;;;1.37;1.27;;;6.60;99.90;;;;;;5017711;28;20228;-62
2022/01/21 13:04:46;;;;;;;1.00;1.00;;;6.50;99.90;;;;;;5017548;28;20213;-63
2022/01/21 13:07:19;;;;;;;1.30;1.20;;;6.60;99.90;;;;;;5010164;28;20599;-62
2022/01/21 13:10:04;;;;;;;1.40;1.10;;;6.50;99.90;;;;;;5017366;28;20645;-62
2022/01/21 13:13:01;;;;;;;1.07;0.97;;;6.60;99.90;;;;;;5020789;28;20308;-61
2022/01/21 13:15:43;;;;;;;1.20;1.10;;;6.60;99.90;;;;;;5017119;28;20205;-62
2022/01/21 13:18:12;;;;;;;1.80;1.43;;;6.70;99.90;;;;;;5022734;28;20196;-61
2022/01/21 13:20:42;;;;;;;1.20;1.20;;;6.70;99.90;;;;;;5020519;28;20280;-62
2022/01/21 13:23:09;;;;;;;1.57;1.47;;;6.60;99.90;;;;;;5025775;28;20252;-62
2022/01/21 13:25:38;;;;;;;1.43;1.33;;;6.30;99.90;;;;;;5013987;28;20214;-63
2022/01/21 13:28:06;;;;;;;1.47;1.37;;;6.10;99.90;;;;;;5016435;28;20232;-62
2022/01/21 13:30:37;;;;;;;1.47;1.37;;;6.00;99.90;;;;;;5022495;28;20343;-61
2022/01/21 13:33:07;;;;;;;1.73;1.40;;;5.90;99.90;;;;;;5015713;28;20228;-62
2022/01/21 13:35:35;;;;;;;1.20;1.20;;;5.90;99.90;;;;;;5012058;28;20209;-62
2022/01/21 13:38:05;;;;;;;1.20;1.20;;;6.00;99.90;;;;;;5017510;28;20292;-62
2022/01/21 13:40:36;;;;;;;1.20;1.20;;;6.00;99.90;;;;;;5016048;28;20283;-62
2022/01/21 13:43:08;;;;;;;1.40;1.30;;;6.20;99.90;;;;;;5012409;28;20203;-62
2022/01/21 13:45:36;;;;;;;1.23;1.13;;;6.30;99.90;;;;;;5014912;28;20208;-61
2022/01/21 13:48:05;;;;;;;1.37;1.27;;;6.30;99.90;;;;;;5016102;28;20229;-62
2022/01/21 13:50:33;;;;;;;1.20;1.20;;;6.30;99.90;;;;;;5020344;28;20248;-62
2022/01/21 13:53:03;;;;;;;1.40;1.30;;;6.30;99.90;;;;;;5019700;28;20624;-62
2022/01/21 13:55:32;;;;;;;1.63;1.43;;;6.30;99.90;;;;;;5014408;28;20719;-62
2022/01/21 13:58:02;;;;;;;1.27;1.17;;;6.20;99.90;;;;;;5013157;28;20289;-62
2022/01/21 14:00:33;;;;;;;1.40;1.30;;;6.10;99.90;;;;;;5016148;28;20359;-62
2022/01/21 14:03:06;;;;;;;1.43;1.30;;;6.20;99.90;;;;;;5013392;28;20204;-62